sensor_id;sensor_type;location;lat;lon;timestamp;P1;durP1;ratioP1;P2;durP2;ratioP2
52126;SDS011;38120;53.176;6.614;2023-07-13T00:01:32;5.88;;;2.72;;
52126;SDS011;38120;53.176;6.614;2023-07-13T00:03:59;7.70;;;2.45;;
52126;SDS011;38120;53.176;6.614;2023-07-13T00:06:25;5.95;;;1.90;;
52126;SDS011;38120;53.176;6.614;2023-07-13T00:08:50;14.82;;;3.00;;
52126;SDS011;38120;53.176;6.614;2023-07-13T00:11:16;6.75;;;2.08;;
52126;SDS011;38120;53.176;6.614;2023-07-13T00:13:42;9.88;;;2.78;;
52126;SDS011;38120;53.176;6.614;2023-07-13T00:16:09;8.98;;;2.83;;
52126;SDS011;38120;53.176;6.614;2023-07-13T00:18:36;6.47;;;2.40;;
52126;SDS011;38120;53.176;6.614;2023-07-13T00:21:03;7.25;;;2.58;;
52126;SDS011;38120;53.176;6.614;2023-07-13T00:23:32;6.95;;;2.85;;
52126;SDS011;38120;53.176;6.614;2023-07-13T00:26:03;11.82;;;3.28;;
52126;SDS011;38120;53.176;6.614;2023-07-13T00:28:30;8.75;;;2.83;;
52126;SDS011;38120;53.176;6.614;2023-07-13T00:30:57;11.02;;;3.20;;
52126;SDS011;38120;53.176;6.614;2023-07-13T00:33:23;10.63;;;2.78;;
52126;SDS011;38120;53.176;6.614;2023-07-13T00:35:49;11.60;;;2.75;;
52126;SDS011;38120;53.176;6.614;2023-07-13T00:38:15;7.32;;;2.80;;
52126;SDS011;38120;53.176;6.614;2023-07-13T00:43:12;9.98;;;3.00;;
52126;SDS011;38120;53.176;6.614;2023-07-13T00:48:19;7.95;;;3.25;;
52126;SDS011;38120;53.176;6.614;2023-07-13T00:50:50;9.90;;;3.60;;
52126;SDS011;38120;53.176;6.614;2023-07-13T00:53:18;7.80;;;3.10;;
52126;SDS011;38120;53.176;6.614;2023-07-13T00:55:45;11.15;;;3.00;;
52126;SDS011;38120;53.176;6.614;2023-07-13T00:58:13;6.95;;;2.63;;
52126;SDS011;38120;53.176;6.614;2023-07-13T01:00:39;8.60;;;3.25;;
52126;SDS011;38120;53.176;6.614;2023-07-13T01:03:05;7.85;;;3.10;;
52126;SDS011;38120;53.176;6.614;2023-07-13T01:05:32;7.00;;;2.97;;
52126;SDS011;38120;53.176;6.614;2023-07-13T01:08:00;9.43;;;2.80;;
52126;SDS011;38120;53.176;6.614;2023-07-13T01:10:27;14.90;;;3.35;;
52126;SDS011;38120;53.176;6.614;2023-07-13T01:12:53;9.88;;;3.00;;
52126;SDS011;38120;53.176;6.614;2023-07-13T01:18:05;11.38;;;3.45;;
52126;SDS011;38120;53.176;6.614;2023-07-13T01:20:36;17.25;;;3.10;;
52126;SDS011;38120;53.176;6.614;2023-07-13T01:23:06;10.88;;;3.70;;
52126;SDS011;38120;53.176;6.614;2023-07-13T01:25:35;10.70;;;3.47;;
52126;SDS011;38120;53.176;6.614;2023-07-13T01:28:06;11.15;;;3.60;;
52126;SDS011;38120;53.176;6.614;2023-07-13T01:30:36;9.18;;;3.33;;
52126;SDS011;38120;53.176;6.614;2023-07-13T01:33:05;13.35;;;3.15;;
52126;SDS011;38120;53.176;6.614;2023-07-13T01:35:32;13.60;;;3.25;;
52126;SDS011;38120;53.176;6.614;2023-07-13T01:37:58;10.80;;;3.97;;
52126;SDS011;38120;53.176;6.614;2023-07-13T01:40:26;14.32;;;3.78;;
52126;SDS011;38120;53.176;6.614;2023-07-13T01:42:51;7.28;;;3.45;;
52126;SDS011;38120;53.176;6.614;2023-07-13T01:45:17;13.80;;;3.80;;
52126;SDS011;38120;53.176;6.614;2023-07-13T01:47:43;7.18;;;2.90;;
52126;SDS011;38120;53.176;6.614;2023-07-13T01:50:09;12.25;;;3.38;;
52126;SDS011;38120;53.176;6.614;2023-07-13T01:52:35;12.75;;;3.90;;
52126;SDS011;38120;53.176;6.614;2023-07-13T01:55:00;11.82;;;3.58;;
52126;SDS011;38120;53.176;6.614;2023-07-13T01:59:53;9.57;;;3.05;;
52126;SDS011;38120;53.176;6.614;2023-07-13T02:02:18;13.35;;;3.65;;
52126;SDS011;38120;53.176;6.614;2023-07-13T02:04:44;13.30;;;3.38;;
52126;SDS011;38120;53.176;6.614;2023-07-13T02:07:10;10.05;;;3.53;;
52126;SDS011;38120;53.176;6.614;2023-07-13T02:09:36;10.20;;;3.38;;
52126;SDS011;38120;53.176;6.614;2023-07-13T02:12:02;10.48;;;4.00;;
52126;SDS011;38120;53.176;6.614;2023-07-13T02:14:28;10.05;;;3.00;;
52126;SDS011;38120;53.176;6.614;2023-07-13T02:16:53;9.18;;;3.53;;
52126;SDS011;38120;53.176;6.614;2023-07-13T02:19:19;11.18;;;3.95;;
52126;SDS011;38120;53.176;6.614;2023-07-13T02:21:45;9.95;;;3.58;;
52126;SDS011;38120;53.176;6.614;2023-07-13T02:24:11;9.02;;;3.83;;
52126;SDS011;38120;53.176;6.614;2023-07-13T02:26:42;9.32;;;3.78;;
52126;SDS011;38120;53.176;6.614;2023-07-13T02:29:09;11.18;;;3.55;;
52126;SDS011;38120;53.176;6.614;2023-07-13T02:31:35;11.30;;;2.92;;
52126;SDS011;38120;53.176;6.614;2023-07-13T02:34:01;11.98;;;5.32;;
52126;SDS011;38120;53.176;6.614;2023-07-13T02:36:28;8.93;;;3.42;;
52126;SDS011;38120;53.176;6.614;2023-07-13T02:41:19;10.25;;;3.17;;
52126;SDS011;38120;53.176;6.614;2023-07-13T02:43:45;8.98;;;3.25;;
52126;SDS011;38120;53.176;6.614;2023-07-13T02:46:11;9.63;;;4.05;;
52126;SDS011;38120;53.176;6.614;2023-07-13T02:48:37;13.35;;;4.00;;
52126;SDS011;38120;53.176;6.614;2023-07-13T02:51:04;13.02;;;4.57;;
52126;SDS011;38120;53.176;6.614;2023-07-13T02:53:30;11.75;;;3.80;;
52126;SDS011;38120;53.176;6.614;2023-07-13T02:55:56;11.43;;;4.07;;
52126;SDS011;38120;53.176;6.614;2023-07-13T02:58:22;11.70;;;3.72;;
52126;SDS011;38120;53.176;6.614;2023-07-13T03:00:48;7.55;;;3.17;;
52126;SDS011;38120;53.176;6.614;2023-07-13T03:03:15;14.85;;;4.03;;
52126;SDS011;38120;53.176;6.614;2023-07-13T03:08:08;11.40;;;3.57;;
52126;SDS011;38120;53.176;6.614;2023-07-13T03:10:34;8.93;;;3.88;;
52126;SDS011;38120;53.176;6.614;2023-07-13T03:13:00;18.20;;;5.50;;
52126;SDS011;38120;53.176;6.614;2023-07-13T03:15:26;14.70;;;4.05;;
52126;SDS011;38120;53.176;6.614;2023-07-13T03:17:52;11.50;;;3.55;;
52126;SDS011;38120;53.176;6.614;2023-07-13T03:20:18;10.48;;;3.22;;
52126;SDS011;38120;53.176;6.614;2023-07-13T03:22:44;9.15;;;4.78;;
52126;SDS011;38120;53.176;6.614;2023-07-13T03:25:10;14.00;;;4.18;;
52126;SDS011;38120;53.176;6.614;2023-07-13T03:27:36;14.30;;;4.03;;
52126;SDS011;38120;53.176;6.614;2023-07-13T03:30:03;9.15;;;3.65;;
52126;SDS011;38120;53.176;6.614;2023-07-13T03:32:30;14.13;;;3.50;;
52126;SDS011;38120;53.176;6.614;2023-07-13T03:34:56;11.80;;;3.53;;
52126;SDS011;38120;53.176;6.614;2023-07-13T03:37:22;11.55;;;3.58;;
52126;SDS011;38120;53.176;6.614;2023-07-13T03:39:47;7.40;;;3.10;;
52126;SDS011;38120;53.176;6.614;2023-07-13T03:42:13;8.93;;;3.55;;
52126;SDS011;38120;53.176;6.614;2023-07-13T03:44:40;8.75;;;3.83;;
52126;SDS011;38120;53.176;6.614;2023-07-13T03:49:33;13.35;;;4.15;;
52126;SDS011;38120;53.176;6.614;2023-07-13T03:51:59;12.18;;;4.40;;
52126;SDS011;38120;53.176;6.614;2023-07-13T03:54:25;14.38;;;3.88;;
52126;SDS011;38120;53.176;6.614;2023-07-13T03:56:51;12.43;;;3.83;;
52126;SDS011;38120;53.176;6.614;2023-07-13T03:59:17;9.43;;;4.30;;
52126;SDS011;38120;53.176;6.614;2023-07-13T04:01:43;14.23;;;4.20;;
52126;SDS011;38120;53.176;6.614;2023-07-13T04:06:34;12.15;;;3.45;;
52126;SDS011;38120;53.176;6.614;2023-07-13T04:09:00;10.63;;;4.13;;
52126;SDS011;38120;53.176;6.614;2023-07-13T04:11:30;11.20;;;4.25;;
52126;SDS011;38120;53.176;6.614;2023-07-13T04:13:57;17.13;;;5.47;;
52126;SDS011;38120;53.176;6.614;2023-07-13T04:16:23;10.25;;;3.95;;
52126;SDS011;38120;53.176;6.614;2023-07-13T04:18:50;12.73;;;5.25;;
52126;SDS011;38120;53.176;6.614;2023-07-13T04:21:20;10.25;;;4.28;;
52126;SDS011;38120;53.176;6.614;2023-07-13T04:23:46;17.05;;;5.90;;
52126;SDS011;38120;53.176;6.614;2023-07-13T04:26:12;11.70;;;5.13;;
52126;SDS011;38120;53.176;6.614;2023-07-13T04:28:37;18.23;;;4.80;;
52126;SDS011;38120;53.176;6.614;2023-07-13T04:31:03;12.43;;;4.35;;
52126;SDS011;38120;53.176;6.614;2023-07-13T04:33:30;16.13;;;4.85;;
52126;SDS011;38120;53.176;6.614;2023-07-13T04:35:55;15.23;;;4.93;;
52126;SDS011;38120;53.176;6.614;2023-07-13T04:40:55;16.00;;;7.05;;
52126;SDS011;38120;53.176;6.614;2023-07-13T04:43:23;17.20;;;4.95;;
52126;SDS011;38120;53.176;6.614;2023-07-13T04:45:50;15.70;;;4.05;;
52126;SDS011;38120;53.176;6.614;2023-07-13T04:48:16;13.30;;;3.83;;
52126;SDS011;38120;53.176;6.614;2023-07-13T04:50:42;10.50;;;3.72;;
52126;SDS011;38120;53.176;6.614;2023-07-13T04:55:34;9.00;;;5.10;;
52126;SDS011;38120;53.176;6.614;2023-07-13T04:57:59;13.40;;;4.35;;
52126;SDS011;38120;53.176;6.614;2023-07-13T05:00:25;13.38;;;3.95;;
52126;SDS011;38120;53.176;6.614;2023-07-13T05:02:52;10.57;;;3.95;;
52126;SDS011;38120;53.176;6.614;2023-07-13T05:05:19;11.60;;;3.92;;
52126;SDS011;38120;53.176;6.614;2023-07-13T05:07:45;11.57;;;4.95;;
52126;SDS011;38120;53.176;6.614;2023-07-13T05:10:10;12.70;;;4.22;;
52126;SDS011;38120;53.176;6.614;2023-07-13T05:12:36;15.60;;;5.13;;
52126;SDS011;38120;53.176;6.614;2023-07-13T05:15:02;12.10;;;4.82;;
52126;SDS011;38120;53.176;6.614;2023-07-13T05:17:31;13.48;;;4.63;;
52126;SDS011;38120;53.176;6.614;2023-07-13T05:19:57;16.23;;;4.57;;
52126;SDS011;38120;53.176;6.614;2023-07-13T05:22:23;10.50;;;4.07;;
52126;SDS011;38120;53.176;6.614;2023-07-13T05:24:48;14.05;;;3.72;;
52126;SDS011;38120;53.176;6.614;2023-07-13T05:27:15;8.23;;;3.92;;
52126;SDS011;38120;53.176;6.614;2023-07-13T05:29:40;11.07;;;3.65;;
52126;SDS011;38120;53.176;6.614;2023-07-13T05:32:06;9.13;;;2.97;;
52126;SDS011;38120;53.176;6.614;2023-07-13T05:34:32;16.83;;;3.92;;
52126;SDS011;38120;53.176;6.614;2023-07-13T05:36:57;12.80;;;3.13;;
52126;SDS011;38120;53.176;6.614;2023-07-13T05:39:23;9.05;;;3.20;;
52126;SDS011;38120;53.176;6.614;2023-07-13T05:41:49;11.02;;;3.53;;
52126;SDS011;38120;53.176;6.614;2023-07-13T05:44:15;10.93;;;3.63;;
52126;SDS011;38120;53.176;6.614;2023-07-13T05:46:41;12.15;;;3.28;;
52126;SDS011;38120;53.176;6.614;2023-07-13T05:49:06;9.02;;;3.67;;
52126;SDS011;38120;53.176;6.614;2023-07-13T05:51:32;13.82;;;3.40;;
52126;SDS011;38120;53.176;6.614;2023-07-13T05:53:58;12.57;;;3.63;;
52126;SDS011;38120;53.176;6.614;2023-07-13T05:56:23;11.57;;;3.72;;
52126;SDS011;38120;53.176;6.614;2023-07-13T05:58:50;12.13;;;4.00;;
52126;SDS011;38120;53.176;6.614;2023-07-13T06:01:16;10.82;;;3.17;;
52126;SDS011;38120;53.176;6.614;2023-07-13T06:03:42;8.23;;;3.20;;
52126;SDS011;38120;53.176;6.614;2023-07-13T06:06:08;8.02;;;3.58;;
52126;SDS011;38120;53.176;6.614;2023-07-13T06:08:35;7.85;;;2.45;;
52126;SDS011;38120;53.176;6.614;2023-07-13T06:11:02;8.90;;;2.78;;
52126;SDS011;38120;53.176;6.614;2023-07-13T06:13:30;12.95;;;3.33;;
52126;SDS011;38120;53.176;6.614;2023-07-13T06:15:55;10.20;;;3.70;;
52126;SDS011;38120;53.176;6.614;2023-07-13T06:18:21;11.00;;;2.85;;
52126;SDS011;38120;53.176;6.614;2023-07-13T06:20:47;13.10;;;3.22;;
52126;SDS011;38120;53.176;6.614;2023-07-13T06:23:12;10.80;;;2.65;;
52126;SDS011;38120;53.176;6.614;2023-07-13T06:25:39;12.13;;;3.67;;
52126;SDS011;38120;53.176;6.614;2023-07-13T06:28:05;10.05;;;2.88;;
52126;SDS011;38120;53.176;6.614;2023-07-13T06:30:31;10.02;;;2.75;;
52126;SDS011;38120;53.176;6.614;2023-07-13T06:32:57;8.48;;;2.92;;
52126;SDS011;38120;53.176;6.614;2023-07-13T06:35:22;8.65;;;2.55;;
52126;SDS011;38120;53.176;6.614;2023-07-13T06:37:48;16.08;;;2.70;;
52126;SDS011;38120;53.176;6.614;2023-07-13T06:40:14;7.88;;;3.08;;
52126;SDS011;38120;53.176;6.614;2023-07-13T06:42:40;11.68;;;2.63;;
52126;SDS011;38120;53.176;6.614;2023-07-13T06:45:06;10.57;;;2.42;;
52126;SDS011;38120;53.176;6.614;2023-07-13T06:47:32;6.68;;;2.97;;
52126;SDS011;38120;53.176;6.614;2023-07-13T06:49:57;9.05;;;3.67;;
52126;SDS011;38120;53.176;6.614;2023-07-13T06:52:23;5.97;;;2.58;;
52126;SDS011;38120;53.176;6.614;2023-07-13T06:54:49;10.98;;;3.38;;
52126;SDS011;38120;53.176;6.614;2023-07-13T06:57:15;8.50;;;1.95;;
52126;SDS011;38120;53.176;6.614;2023-07-13T06:59:40;8.88;;;2.42;;
52126;SDS011;38120;53.176;6.614;2023-07-13T07:02:07;10.30;;;3.17;;
52126;SDS011;38120;53.176;6.614;2023-07-13T07:04:35;7.05;;;2.00;;
52126;SDS011;38120;53.176;6.614;2023-07-13T07:07:00;8.98;;;1.92;;
52126;SDS011;38120;53.176;6.614;2023-07-13T07:09:26;6.68;;;2.38;;
52126;SDS011;38120;53.176;6.614;2023-07-13T07:11:51;9.93;;;2.70;;
52126;SDS011;38120;53.176;6.614;2023-07-13T07:14:17;4.47;;;2.15;;
52126;SDS011;38120;53.176;6.614;2023-07-13T07:16:43;7.10;;;2.20;;
52126;SDS011;38120;53.176;6.614;2023-07-13T07:19:09;6.30;;;2.47;;
52126;SDS011;38120;53.176;6.614;2023-07-13T07:21:34;6.40;;;2.00;;
52126;SDS011;38120;53.176;6.614;2023-07-13T07:24:00;7.82;;;2.33;;
52126;SDS011;38120;53.176;6.614;2023-07-13T07:26:26;6.13;;;2.17;;
52126;SDS011;38120;53.176;6.614;2023-07-13T07:28:52;6.82;;;2.20;;
52126;SDS011;38120;53.176;6.614;2023-07-13T07:31:17;6.15;;;1.67;;
52126;SDS011;38120;53.176;6.614;2023-07-13T07:33:43;5.45;;;2.05;;
52126;SDS011;38120;53.176;6.614;2023-07-13T07:36:09;7.75;;;2.50;;
52126;SDS011;38120;53.176;6.614;2023-07-13T07:38:36;9.50;;;2.38;;
52126;SDS011;38120;53.176;6.614;2023-07-13T07:41:03;5.00;;;2.15;;
52126;SDS011;38120;53.176;6.614;2023-07-13T07:43:29;12.38;;;3.00;;
52126;SDS011;38120;53.176;6.614;2023-07-13T07:45:56;5.40;;;2.55;;
52126;SDS011;38120;53.176;6.614;2023-07-13T07:48:22;8.73;;;2.80;;
52126;SDS011;38120;53.176;6.614;2023-07-13T07:50:48;9.52;;;2.58;;
52126;SDS011;38120;53.176;6.614;2023-07-13T07:53:16;13.90;;;2.95;;
52126;SDS011;38120;53.176;6.614;2023-07-13T07:55:42;4.82;;;2.03;;
52126;SDS011;38120;53.176;6.614;2023-07-13T07:58:09;7.35;;;2.88;;
52126;SDS011;38120;53.176;6.614;2023-07-13T08:00:36;11.80;;;2.85;;
52126;SDS011;38120;53.176;6.614;2023-07-13T08:03:01;6.22;;;2.60;;
52126;SDS011;38120;53.176;6.614;2023-07-13T08:05:27;5.78;;;2.72;;
52126;SDS011;38120;53.176;6.614;2023-07-13T08:07:54;8.23;;;2.05;;
52126;SDS011;38120;53.176;6.614;2023-07-13T08:10:19;2.53;;;1.15;;
52126;SDS011;38120;53.176;6.614;2023-07-13T08:12:45;2.78;;;1.10;;
52126;SDS011;38120;53.176;6.614;2023-07-13T08:15:12;2.58;;;1.20;;
52126;SDS011;38120;53.176;6.614;2023-07-13T08:17:39;4.20;;;1.02;;
52126;SDS011;38120;53.176;6.614;2023-07-13T08:20:06;2.58;;;1.60;;
52126;SDS011;38120;53.176;6.614;2023-07-13T08:24:58;3.42;;;1.58;;
52126;SDS011;38120;53.176;6.614;2023-07-13T08:27:25;3.47;;;1.45;;
52126;SDS011;38120;53.176;6.614;2023-07-13T08:29:52;4.82;;;1.83;;
52126;SDS011;38120;53.176;6.614;2023-07-13T08:34:45;4.60;;;2.10;;
52126;SDS011;38120;53.176;6.614;2023-07-13T08:37:11;3.10;;;1.10;;
52126;SDS011;38120;53.176;6.614;2023-07-13T08:39:37;4.35;;;1.65;;
52126;SDS011;38120;53.176;6.614;2023-07-13T08:42:11;4.55;;;1.63;;
52126;SDS011;38120;53.176;6.614;2023-07-13T08:48:18;7.60;;;2.35;;
52126;SDS011;38120;53.176;6.614;2023-07-13T08:51:02;5.78;;;1.88;;
52126;SDS011;38120;53.176;6.614;2023-07-13T08:53:43;5.40;;;1.80;;
52126;SDS011;38120;53.176;6.614;2023-07-13T08:56:19;5.18;;;1.92;;
52126;SDS011;38120;53.176;6.614;2023-07-13T08:58:48;7.10;;;2.17;;
52126;SDS011;38120;53.176;6.614;2023-07-13T09:04:21;5.85;;;1.60;;
52126;SDS011;38120;53.176;6.614;2023-07-13T09:09:22;3.95;;;1.60;;
52126;SDS011;38120;53.176;6.614;2023-07-13T09:12:09;9.27;;;2.60;;
52126;SDS011;38120;53.176;6.614;2023-07-13T09:14:55;8.45;;;1.92;;
52126;SDS011;38120;53.176;6.614;2023-07-13T09:17:25;5.82;;;1.83;;
52126;SDS011;38120;53.176;6.614;2023-07-13T09:19:57;4.35;;;1.90;;
52126;SDS011;38120;53.176;6.614;2023-07-13T09:22:29;4.82;;;2.17;;
52126;SDS011;38120;53.176;6.614;2023-07-13T09:25:10;3.30;;;1.30;;
52126;SDS011;38120;53.176;6.614;2023-07-13T09:27:52;2.97;;;1.67;;
52126;SDS011;38120;53.176;6.614;2023-07-13T09:30:25;5.50;;;2.20;;
52126;SDS011;38120;53.176;6.614;2023-07-13T09:32:58;3.92;;;1.60;;
52126;SDS011;38120;53.176;6.614;2023-07-13T09:35:26;4.43;;;2.22;;
52126;SDS011;38120;53.176;6.614;2023-07-13T09:38:10;7.35;;;2.20;;
52126;SDS011;38120;53.176;6.614;2023-07-13T09:43:26;3.63;;;1.92;;
52126;SDS011;38120;53.176;6.614;2023-07-13T09:45:54;8.25;;;2.28;;
52126;SDS011;38120;53.176;6.614;2023-07-13T09:48:20;6.35;;;2.30;;
52126;SDS011;38120;53.176;6.614;2023-07-13T09:50:46;5.72;;;2.20;;
52126;SDS011;38120;53.176;6.614;2023-07-13T09:55:40;6.10;;;2.17;;
52126;SDS011;38120;53.176;6.614;2023-07-13T10:00:36;7.85;;;2.70;;
52126;SDS011;38120;53.176;6.614;2023-07-13T10:03:20;3.72;;;2.30;;
52126;SDS011;38120;53.176;6.614;2023-07-13T10:05:49;6.15;;;2.20;;
52126;SDS011;38120;53.176;6.614;2023-07-13T10:11:09;4.72;;;1.88;;
52126;SDS011;38120;53.176;6.614;2023-07-13T10:13:39;7.05;;;2.28;;
52126;SDS011;38120;53.176;6.614;2023-07-13T10:16:33;6.38;;;2.33;;
52126;SDS011;38120;53.176;6.614;2023-07-13T10:19:45;9.75;;;2.38;;
52126;SDS011;38120;53.176;6.614;2023-07-13T10:21:56;10.05;;;2.28;;
52126;SDS011;38120;53.176;6.614;2023-07-13T10:24:26;6.20;;;2.20;;
52126;SDS011;38120;53.176;6.614;2023-07-13T10:27:00;8.38;;;2.40;;
52126;SDS011;38120;53.176;6.614;2023-07-13T10:29:48;8.05;;;2.10;;
52126;SDS011;38120;53.176;6.614;2023-07-13T10:32:20;8.48;;;2.53;;
52126;SDS011;38120;53.176;6.614;2023-07-13T10:34:49;6.18;;;2.67;;
52126;SDS011;38120;53.176;6.614;2023-07-13T10:37:24;9.02;;;2.85;;
52126;SDS011;38120;53.176;6.614;2023-07-13T10:39:53;7.65;;;2.50;;
52126;SDS011;38120;53.176;6.614;2023-07-13T10:42:28;7.00;;;2.65;;
52126;SDS011;38120;53.176;6.614;2023-07-13T10:44:57;7.90;;;2.83;;
52126;SDS011;38120;53.176;6.614;2023-07-13T10:47:23;4.25;;;2.25;;
52126;SDS011;38120;53.176;6.614;2023-07-13T10:49:51;7.03;;;2.15;;
52126;SDS011;38120;53.176;6.614;2023-07-13T10:55:55;5.45;;;2.42;;
52126;SDS011;38120;53.176;6.614;2023-07-13T10:58:20;5.22;;;2.03;;
52126;SDS011;38120;53.176;6.614;2023-07-13T11:03:32;2.40;;;0.75;;
52126;SDS011;38120;53.176;6.614;2023-07-13T11:06:11;4.63;;;1.30;;
52126;SDS011;38120;53.176;6.614;2023-07-13T11:11:36;5.50;;;1.10;;
52126;SDS011;38120;53.176;6.614;2023-07-13T11:14:04;4.75;;;1.45;;
52126;SDS011;38120;53.176;6.614;2023-07-13T11:16:50;1.27;;;0.88;;
52126;SDS011;38120;53.176;6.614;2023-07-13T11:32:50;7.05;;;1.08;;
52126;SDS011;38120;53.176;6.614;2023-07-13T11:35:31;3.75;;;1.10;;
52126;SDS011;38120;53.176;6.614;2023-07-13T11:38:01;6.60;;;1.48;;
52126;SDS011;38120;53.176;6.614;2023-07-13T11:40:34;2.92;;;1.15;;
52126;SDS011;38120;53.176;6.614;2023-07-13T11:43:00;4.90;;;1.70;;
52126;SDS011;38120;53.176;6.614;2023-07-13T11:45:27;5.18;;;2.03;;
52126;SDS011;38120;53.176;6.614;2023-07-13T11:47:53;6.70;;;1.55;;
52126;SDS011;38120;53.176;6.614;2023-07-13T11:50:22;6.70;;;1.75;;
52126;SDS011;38120;53.176;6.614;2023-07-13T11:52:50;3.75;;;1.50;;
52126;SDS011;38120;53.176;6.614;2023-07-13T11:55:19;3.17;;;1.33;;
52126;SDS011;38120;53.176;6.614;2023-07-13T11:57:57;3.35;;;1.40;;
52126;SDS011;38120;53.176;6.614;2023-07-13T12:00:31;3.10;;;1.00;;
52126;SDS011;38120;53.176;6.614;2023-07-13T12:02:59;6.32;;;1.33;;
52126;SDS011;38120;53.176;6.614;2023-07-13T12:05:25;6.00;;;1.10;;
52126;SDS011;38120;53.176;6.614;2023-07-13T12:10:28;4.60;;;1.33;;
52126;SDS011;38120;53.176;6.614;2023-07-13T12:13:01;4.40;;;0.98;;
52126;SDS011;38120;53.176;6.614;2023-07-13T12:15:44;3.05;;;0.98;;
52126;SDS011;38120;53.176;6.614;2023-07-13T12:18:18;2.03;;;0.85;;
52126;SDS011;38120;53.176;6.614;2023-07-13T12:20:45;3.17;;;1.25;;
52126;SDS011;38120;53.176;6.614;2023-07-13T12:25:58;5.70;;;1.48;;
52126;SDS011;38120;53.176;6.614;2023-07-13T12:30:57;2.95;;;1.20;;
52126;SDS011;38120;53.176;6.614;2023-07-13T12:33:27;3.63;;;1.42;;
52126;SDS011;38120;53.176;6.614;2023-07-13T12:35:57;2.40;;;1.02;;
52126;SDS011;38120;53.176;6.614;2023-07-13T12:38:27;6.15;;;1.45;;
52126;SDS011;38120;53.176;6.614;2023-07-13T12:40:53;6.65;;;1.20;;
52126;SDS011;38120;53.176;6.614;2023-07-13T12:43:22;9.57;;;2.08;;
52126;SDS011;38120;53.176;6.614;2023-07-13T12:46:00;4.15;;;0.95;;
52126;SDS011;38120;53.176;6.614;2023-07-13T12:48:28;3.05;;;1.23;;
52126;SDS011;38120;53.176;6.614;2023-07-13T12:50:54;5.13;;;1.40;;
52126;SDS011;38120;53.176;6.614;2023-07-13T12:53:27;3.65;;;1.70;;
52126;SDS011;38120;53.176;6.614;2023-07-13T12:55:57;2.75;;;1.17;;
52126;SDS011;38120;53.176;6.614;2023-07-13T12:58:32;5.65;;;1.55;;
52126;SDS011;38120;53.176;6.614;2023-07-13T13:01:09;4.13;;;2.30;;
52126;SDS011;38120;53.176;6.614;2023-07-13T13:03:38;4.80;;;1.30;;
52126;SDS011;38120;53.176;6.614;2023-07-13T13:06:17;4.53;;;1.30;;
52126;SDS011;38120;53.176;6.614;2023-07-13T13:08:51;2.42;;;1.15;;
52126;SDS011;38120;53.176;6.614;2023-07-13T13:11:24;3.65;;;1.05;;
52126;SDS011;38120;53.176;6.614;2023-07-13T13:13:54;6.47;;;1.30;;
52126;SDS011;38120;53.176;6.614;2023-07-13T13:16:24;8.65;;;2.38;;
52126;SDS011;38120;53.176;6.614;2023-07-13T13:21:46;6.38;;;1.38;;
52126;SDS011;38120;53.176;6.614;2023-07-13T13:26:40;2.95;;;1.45;;
52126;SDS011;38120;53.176;6.614;2023-07-13T13:29:16;6.30;;;1.42;;
52126;SDS011;38120;53.176;6.614;2023-07-13T13:31:44;10.05;;;1.70;;
52126;SDS011;38120;53.176;6.614;2023-07-13T13:34:13;3.70;;;1.40;;
52126;SDS011;38120;53.176;6.614;2023-07-13T13:36:41;3.47;;;1.50;;
52126;SDS011;38120;53.176;6.614;2023-07-13T13:42:05;6.13;;;2.15;;
52126;SDS011;38120;53.176;6.614;2023-07-13T13:44:34;7.38;;;1.98;;
52126;SDS011;38120;53.176;6.614;2023-07-13T13:46:59;5.35;;;1.25;;
52126;SDS011;38120;53.176;6.614;2023-07-13T13:49:26;7.00;;;2.13;;
52126;SDS011;38120;53.176;6.614;2023-07-13T13:51:52;5.10;;;1.77;;
52126;SDS011;38120;53.176;6.614;2023-07-13T13:54:19;5.40;;;2.72;;
52126;SDS011;38120;53.176;6.614;2023-07-13T13:56:47;7.07;;;1.38;;
52126;SDS011;38120;53.176;6.614;2023-07-13T13:59:14;4.97;;;1.58;;
52126;SDS011;38120;53.176;6.614;2023-07-13T14:01:41;3.00;;;1.60;;
52126;SDS011;38120;53.176;6.614;2023-07-13T14:04:10;5.13;;;1.55;;
52126;SDS011;38120;53.176;6.614;2023-07-13T14:06:46;6.32;;;2.13;;
52126;SDS011;38120;53.176;6.614;2023-07-13T14:09:14;4.82;;;2.55;;
52126;SDS011;38120;53.176;6.614;2023-07-13T14:11:43;3.85;;;1.40;;
52126;SDS011;38120;53.176;6.614;2023-07-13T14:14:43;5.97;;;1.80;;
52126;SDS011;38120;53.176;6.614;2023-07-13T14:17:02;4.80;;;1.67;;
52126;SDS011;38120;53.176;6.614;2023-07-13T14:19:27;6.13;;;1.75;;
52126;SDS011;38120;53.176;6.614;2023-07-13T14:21:53;5.82;;;2.28;;
52126;SDS011;38120;53.176;6.614;2023-07-13T14:24:19;5.07;;;1.95;;
52126;SDS011;38120;53.176;6.614;2023-07-13T14:26:45;6.43;;;1.83;;
52126;SDS011;38120;53.176;6.614;2023-07-13T14:31:43;4.35;;;1.98;;
52126;SDS011;38120;53.176;6.614;2023-07-13T14:34:10;6.93;;;1.65;;
52126;SDS011;38120;53.176;6.614;2023-07-13T14:36:38;6.43;;;2.10;;
52126;SDS011;38120;53.176;6.614;2023-07-13T14:39:31;5.05;;;1.27;;
52126;SDS011;38120;53.176;6.614;2023-07-13T14:41:56;6.23;;;1.73;;
52126;SDS011;38120;53.176;6.614;2023-07-13T14:44:29;5.05;;;2.00;;
52126;SDS011;38120;53.176;6.614;2023-07-13T14:47:00;5.35;;;1.52;;
52126;SDS011;38120;53.176;6.614;2023-07-13T14:49:39;5.88;;;1.83;;
52126;SDS011;38120;53.176;6.614;2023-07-13T14:52:11;5.03;;;2.28;;
52126;SDS011;38120;53.176;6.614;2023-07-13T14:54:45;9.30;;;1.63;;
52126;SDS011;38120;53.176;6.614;2023-07-13T14:57:15;4.95;;;2.08;;
52126;SDS011;38120;53.176;6.614;2023-07-13T14:59:43;5.05;;;1.67;;
52126;SDS011;38120;53.176;6.614;2023-07-13T15:02:14;6.47;;;1.60;;
52126;SDS011;38120;53.176;6.614;2023-07-13T15:04:41;6.25;;;2.05;;
52126;SDS011;38120;53.176;6.614;2023-07-13T15:07:07;2.72;;;1.23;;
52126;SDS011;38120;53.176;6.614;2023-07-13T15:09:35;6.88;;;1.70;;
52126;SDS011;38120;53.176;6.614;2023-07-13T15:12:01;4.57;;;1.58;;
52126;SDS011;38120;53.176;6.614;2023-07-13T15:14:28;4.47;;;1.40;;
52126;SDS011;38120;53.176;6.614;2023-07-13T15:16:54;5.00;;;1.50;;
52126;SDS011;38120;53.176;6.614;2023-07-13T15:19:21;4.72;;;1.83;;
52126;SDS011;38120;53.176;6.614;2023-07-13T15:21:48;6.65;;;1.70;;
52126;SDS011;38120;53.176;6.614;2023-07-13T15:24:15;5.82;;;1.80;;
52126;SDS011;38120;53.176;6.614;2023-07-13T15:26:41;4.93;;;1.73;;
52126;SDS011;38120;53.176;6.614;2023-07-13T15:29:13;5.10;;;1.80;;
52126;SDS011;38120;53.176;6.614;2023-07-13T15:31:42;7.13;;;2.05;;
52126;SDS011;38120;53.176;6.614;2023-07-13T15:34:09;4.28;;;2.08;;
52126;SDS011;38120;53.176;6.614;2023-07-13T15:36:38;4.93;;;2.08;;
52126;SDS011;38120;53.176;6.614;2023-07-13T15:39:05;8.05;;;1.80;;
52126;SDS011;38120;53.176;6.614;2023-07-13T15:41:32;6.45;;;2.03;;
52126;SDS011;38120;53.176;6.614;2023-07-13T15:43:59;6.57;;;1.92;;
52126;SDS011;38120;53.176;6.614;2023-07-13T15:46:46;6.68;;;2.03;;
52126;SDS011;38120;53.176;6.614;2023-07-13T15:49:11;5.10;;;1.90;;
52126;SDS011;38120;53.176;6.614;2023-07-13T15:51:37;6.88;;;1.90;;
52126;SDS011;38120;53.176;6.614;2023-07-13T15:54:03;5.07;;;1.83;;
52126;SDS011;38120;53.176;6.614;2023-07-13T15:56:34;7.45;;;2.30;;
52126;SDS011;38120;53.176;6.614;2023-07-13T15:59:02;5.72;;;2.10;;
52126;SDS011;38120;53.176;6.614;2023-07-13T16:01:28;9.13;;;2.85;;
52126;SDS011;38120;53.176;6.614;2023-07-13T16:03:55;6.97;;;2.00;;
52126;SDS011;38120;53.176;6.614;2023-07-13T16:06:25;7.90;;;1.77;;
52126;SDS011;38120;53.176;6.614;2023-07-13T16:08:54;6.80;;;1.92;;
52126;SDS011;38120;53.176;6.614;2023-07-13T16:11:22;9.52;;;2.38;;
52126;SDS011;38120;53.176;6.614;2023-07-13T16:13:56;13.23;;;1.98;;
52126;SDS011;38120;53.176;6.614;2023-07-13T16:16:23;4.93;;;2.05;;
52126;SDS011;38120;53.176;6.614;2023-07-13T16:18:55;4.63;;;1.70;;
52126;SDS011;38120;53.176;6.614;2023-07-13T16:21:23;7.68;;;1.75;;